Bloomington, IN (47408)

12:12 PM EDT del 29 Luglio 2015 (GMT -0400)
APRSWXNET | | Change Station
CLOSE
Current Station
Stazione meteo personale
Location: Bloomington, IN
Altitudine: 839 ft
Stazioni meteo nelle vicinanze

Alt. 839 ft 39.17 °N, 86.50 °W | Updated 53 minutes ago

Sereno
Sereno
90 °F
Sembra 100 °F
N
1
Vento Variabile Vento da OSO
Gusts 6.0 mph

Oggi
Massima -- | Minima -- °F
--% Possibilità di precip.
Ieri
Massima -- | Minima -- °F
Precip. -- in
6:43 AM 9:00 PM
Gobba a ponente, 96% visible
Pressione 29.96 in
Visibilità 10.0 miglia
Nuvole Sereno
Indice di calore 100 °F
Punto di rugiada 74 °F
Umidità 60%
Piovosità in
Spessore del manto nevoso Non disponibile.
Raggi UV 9 fuori da 12
Polline 5.90 fuori da 12
Qualità dell'aria Non disponibile.
Flu Activity Non disponibile.
METAR KBMG 291553Z 00000KT 10SM CLR 29/24 A2999 RMK AO2 SLP146 T02940244

More Conditions Fewer Conditions

Pressione 29.96 in
Visibilità 10.0 miglia
Nuvole Sereno
Indice di calore 100 °F
Punto di rugiada 74 °F
Umidità 60%
Piovosità in
Spessore del manto nevoso Non disponibile.
Raggi UV 9 fuori da 12
Polline 5.90 fuori da 12
Qualità dell'aria Non disponibile.
Flu Activity Non disponibile.
METAR KBMG 291553Z 00000KT 10SM CLR 29/24 A2999 RMK AO2 SLP146 T02940244

More Conditions Fewer Conditions

10-Day Weather Forecast

×

Almanac

Astronomia

Jul. 29, 2015 Alba Tramonto
Ora attuale
Crepuscolo civile
Crepuscolo nautico
Crepuscolo astronomico
Luna
Estensione della luce visibile
Lunghezza del giorno
Tomorrow will be .
, % of the Moon is Illuminated

Gli estremi di oggi

State Highs State Lows

Community

WunderPhotos

Upload Photos

1,842,123 foto caricate!

WunderBlogs® & News

Nearby

Qualità dell'aria

  Qualità dell'aria Indice AQ Inquinante
Not available.

Profondità neve

Stazione Profondità Altitudine

Attività sismica

Città  Distanza Mag. Data & Ora
Minimo Magnitudo Mostrato è 2.5.

Temperature delle acque costiere

Località Temperatura

Stations

Stazioni meteo nelle vicinanze

Ubicazione della stazione Temp. Raffreddamento del vento Punto di rugiada Umidità Vento Precip. Alt. Aggiornato Tipo